Time;durP1;ratioP1;P1;durP2;ratioP2;P2;SDS_P1;SDS_P2;PMS_P1;PMS_P2;Temp;Humidity;BMP_temperature;BMP_pressure;BME280_temperature;BME280_humidity;BME280_pressure;Samples;Min_cycle;Max_cycle;Signal;HPM_P1;HPM_P2
2021/03/30 00:00:40;;;;;;;;;;;;;;;21.38;52.70;102482.69;2109312;28;2193;-29
2021/03/30 00:01:41;;;;;;;;;;;;;;;21.38;52.70;102485.56;2109895;28;2524;-27
2021/03/30 00:02:41;;;;;;;;;;;;;;;21.39;52.81;102487.22;2115607;28;1906;-28
2021/03/30 00:03:42;;;;;;;;;;;;;;;21.37;52.83;102484.72;2110415;28;3033;-28
2021/03/30 00:04:43;;;;;;;;;;;;;;;21.38;52.91;102491.25;2113431;28;2169;-30
2021/03/30 00:05:45;;;;;;;;;;;;;;;21.38;52.93;102494.94;2114361;28;2211;-29
2021/03/30 00:06:46;;;;;;;;;;;;;;;21.38;52.88;102494.09;2112957;28;2209;-29
2021/03/30 00:07:47;;;;;;;;;;;;;;;21.38;52.86;102497.78;2113501;28;1678;-35
2021/03/30 00:08:48;;;;;;;;;;;;;;;21.38;53.01;102491.25;2109960;28;1129;-30
2021/03/30 00:09:49;;;;;;;;;;;;;;;21.39;52.95;102492.91;2111988;28;2242;-34
2021/03/30 00:10:49;;;;;;;;;;;;;;;21.39;53.23;102492.91;2115106;28;2175;-32
2021/03/30 00:11:50;;;;;;;;;;;;;;;21.39;53.06;102488.06;2115761;28;1098;-35
2021/03/30 00:12:51;;;;;;;;;;;;;;;21.38;53.02;102491.25;2109540;28;2375;-28
2021/03/30 00:13:52;;;;;;;;;;;;;;;21.39;53.27;102490.06;2111744;28;2337;-29
2021/03/30 00:14:52;;;;;;;;;;;;;;;21.39;53.15;102492.91;2107448;28;2392;-30
2021/03/30 00:15:53;;;;;;;;;;;;;;;21.39;53.15;102498.63;2115866;28;1784;-29
2021/03/30 00:16:54;;;;;;;;;;;;;;;21.40;53.19;102500.31;2115282;28;1375;-29
2021/03/30 00:17:55;;;;;;;;;;;;;;;21.39;53.11;102502.31;2109972;28;2076;-32
2021/03/30 00:18:55;;;;;;;;;;;;;;;21.39;53.23;102499.44;2115705;28;1824;-28
2021/03/30 00:19:56;;;;;;;;;;;;;;;21.39;53.23;102499.44;2110520;28;2149;-28
2021/03/30 00:20:57;;;;;;;;;;;;;;;21.38;53.22;102497.78;2115660;28;1571;-30
2021/03/30 00:21:57;;;;;;;;;;;;;;;21.40;53.24;102497.47;2112926;28;2301;-29
2021/03/30 00:22:58;;;;;;;;;;;;;;;21.39;53.29;102495.75;2109585;28;1906;-28
2021/03/30 00:23:59;;;;;;;;;;;;;;;21.39;53.18;102493.75;2115894;28;1170;-29
2021/03/30 00:25:00;;;;;;;;;;;;;;;21.39;53.15;102499.44;2114524;28;1246;-30
2021/03/30 00:26:01;;;;;;;;;;;;;;;21.39;53.23;102499.44;2113722;28;2269;-34
2021/03/30 00:27:01;;;;;;;;;;;;;;;21.39;53.22;102498.63;2114708;28;3262;-36
2021/03/30 00:28:02;;;;;;;;;;;;;;;21.39;53.14;102492.91;2107312;28;2197;-29
2021/03/30 00:29:03;;;;;;;;;;;;;;;21.39;53.22;102490.06;2113425;28;2161;-29
2021/03/30 00:30:04;;;;;;;;;;;;;;;21.37;53.01;102496.09;2113053;28;3686;-31
2021/03/30 00:31:04;;;;;;;;;;;;;;;21.39;53.19;102492.91;2115452;28;1763;-28
2021/03/30 00:32:05;;;;;;;;;;;;;;;21.39;53.08;102490.06;2115556;28;1293;-30
2021/03/30 00:33:06;;;;;;;;;;;;;;;21.38;53.21;102492.06;2113708;28;2148;-29
2021/03/30 00:34:07;;;;;;;;;;;;;;;21.38;53.10;102489.22;2115974;28;1775;-29
2021/03/30 00:35:07;;;;;;;;;;;;;;;21.39;53.09;102493.75;2115422;28;2136;-32
2021/03/30 00:36:08;;;;;;;;;;;;;;;21.39;53.21;102492.91;2113444;28;2161;-28
2021/03/30 00:37:09;;;;;;;;;;;;;;;21.39;53.12;102490.91;2115399;28;1474;-31
2021/03/30 00:38:10;;;;;;;;;;;;;;;21.39;53.22;102496.59;2115926;28;1126;-29
2021/03/30 00:39:10;;;;;;;;;;;;;;;21.39;53.24;102492.91;2111127;28;2237;-29
2021/03/30 00:40:11;;;;;;;;;;;;;;;21.40;53.19;102494.63;2115558;28;1705;-29
2021/03/30 00:41:12;;;;;;;;;;;;;;;21.39;53.11;102492.91;2113731;28;1693;-29
2021/03/30 00:42:12;;;;;;;;;;;;;;;21.39;53.11;102493.75;2113768;28;2303;-29
2021/03/30 00:43:13;;;;;;;;;;;;;;;21.39;53.17;102499.44;2115374;28;2244;-29
2021/03/30 00:44:14;;;;;;;;;;;;;;;21.39;53.17;102492.91;2114936;28;1681;-31
2021/03/30 00:45:15;;;;;;;;;;;;;;;21.39;53.22;102495.75;2115757;28;1546;-31
2021/03/30 00:46:15;;;;;;;;;;;;;;;21.40;53.04;102497.47;2113087;28;2145;-29
2021/03/30 00:47:16;;;;;;;;;;;;;;;21.40;53.23;102497.47;2112847;28;2199;-29
2021/03/30 00:48:17;;;;;;;;;;;;;;;21.39;53.27;102492.91;2106591;28;2070;-37
2021/03/30 00:49:18;;;;;;;;;;;;;;;21.40;53.09;102491.78;2111172;28;2219;-29
2021/03/30 00:50:18;;;;;;;;;;;;;;;21.39;53.19;102499.44;2115566;28;1126;-29
2021/03/30 00:51:19;;;;;;;;;;;;;;;21.39;53.25;102488.06;2110067;28;2221;-27
2021/03/30 00:52:20;;;;;;;;;;;;;;;21.39;53.10;102490.91;2113982;28;2123;-31
2021/03/30 00:53:21;;;;;;;;;;;;;;;21.38;53.23;102494.94;2109532;28;2744;-28
2021/03/30 00:54:21;;;;;;;;;;;;;;;21.39;53.31;102501.47;2115015;28;1257;-29
2021/03/30 00:55:22;;;;;;;;;;;;;;;21.39;53.20;102496.59;2109185;28;2453;-28
2021/03/30 00:56:23;;;;;;;;;;;;;;;21.39;53.17;102487.22;2115381;28;1117;-31
2021/03/30 00:57:24;;;;;;;;;;;;;;;21.39;53.16;102488.06;2110871;28;2176;-29
2021/03/30 00:58:25;;;;;;;;;;;;;;;21.40;53.24;102491.78;2114834;28;2441;-29
2021/03/30 00:59:26;;;;;;;;;;;;;;;21.39;53.18;102490.06;2108642;28;2105;-28
2021/03/30 01:00:26;;;;;;;;;;;;;;;21.40;53.10;102494.63;2107297;28;2212;-36
2021/03/30 01:01:27;;;;;;;;;;;;;;;21.40;53.34;102495.47;2113782;28;1722;-32
2021/03/30 01:02:28;;;;;;;;;;;;;;;21.39;53.16;102485.22;2114548;28;1615;-28
2021/03/30 01:03:29;;;;;;;;;;;;;;;21.40;53.19;102495.47;2109442;28;2754;-35
2021/03/30 01:04:29;;;;;;;;;;;;;;;21.40;53.20;102494.63;2110516;28;2192;-28
2021/03/30 01:05:30;;;;;;;;;;;;;;;21.40;53.37;102488.94;2113314;28;2050;-29
2021/03/30 01:06:31;;;;;;;;;;;;;;;21.41;53.39;102502.00;2106373;28;2162;-29
2021/03/30 01:07:31;;;;;;;;;;;;;;;21.40;53.29;102494.63;2108609;28;2386;-31
2021/03/30 01:08:32;;;;;;;;;;;;;;;21.40;53.25;102495.47;2109040;28;2221;-28
2021/03/30 01:09:33;;;;;;;;;;;;;;;21.40;53.25;102500.31;2115183;28;2242;-29
2021/03/30 01:10:34;;;;;;;;;;;;;;;21.40;53.42;102488.94;2112981;28;2203;-29
2021/03/30 01:11:34;;;;;;;;;;;;;;;21.40;53.38;102500.31;2115409;28;1373;-32
2021/03/30 01:12:35;;;;;;;;;;;;;;;21.40;53.22;102504.00;2109749;28;1657;-29
2021/03/30 01:13:36;;;;;;;;;;;;;;;21.39;53.21;102499.44;2111866;28;2284;-34
2021/03/30 01:14:37;;;;;;;;;;;;;;;21.39;53.19;102504.31;2114234;28;2554;-31
2021/03/30 01:15:38;;;;;;;;;;;;;;;21.40;53.39;102508.88;2115763;28;1702;-29
2021/03/30 01:16:39;;;;;;;;;;;;;;;21.40;53.41;102503.16;2113939;28;2165;-28
2021/03/30 01:17:40;;;;;;;;;;;;;;;21.40;53.38;102503.16;2115033;28;1508;-30
2021/03/30 01:18:41;;;;;;;;;;;;;;;21.40;53.38;102500.31;2106762;28;2190;-30
2021/03/30 01:19:42;;;;;;;;;;;;;;;21.40;53.26;102501.16;2113685;28;2043;-29
2021/03/30 01:20:43;;;;;;;;;;;;;;;21.40;53.30;102506.84;2111738;28;2312;-31
2021/03/30 01:21:44;;;;;;;;;;;;;;;21.39;53.44;102505.16;2112560;28;2350;-31
2021/03/30 01:22:45;;;;;;;;;;;;;;;21.40;53.33;102506.00;2110275;28;2254;-31
2021/03/30 01:23:45;;;;;;;;;;;;;;;21.41;53.30;102513.38;2115102;28;2345;-29
2021/03/30 01:24:46;;;;;;;;;;;;;;;21.39;53.49;102507.16;2115146;28;1292;-28
2021/03/30 01:25:47;;;;;;;;;;;;;;;21.40;53.60;102504.00;2113209;28;2201;-27
2021/03/30 01:26:48;;;;;;;;;;;;;;;21.41;53.33;102510.53;2111979;28;2175;-29
2021/03/30 01:27:48;;;;;;;;;;;;;;;21.40;53.51;102508.88;2114013;28;1403;-29
2021/03/30 01:28:49;;;;;;;;;;;;;;;21.40;53.39;102514.56;2110894;28;2383;-30
2021/03/30 01:29:50;;;;;;;;;;;;;;;21.40;53.60;102506.00;2107215;28;3579;-30
2021/03/30 01:30:51;;;;;;;;;;;;;;;21.39;53.58;102510.84;2114021;28;1219;-31
2021/03/30 01:31:51;;;;;;;;;;;;;;;21.40;53.61;102511.72;2111269;28;2222;-29
2021/03/30 01:32:52;;;;;;;;;;;;;;;21.40;53.54;102506.00;2113379;28;1524;-29
2021/03/30 01:33:53;;;;;;;;;;;;;;;21.40;53.50;102508.88;2114636;28;2013;-28
2021/03/30 01:34:54;;;;;;;;;;;;;;;21.39;53.36;102508.00;2115078;28;1138;-29
2021/03/30 01:35:54;;;;;;;;;;;;;;;21.39;53.61;102513.69;2107668;28;2174;-28
2021/03/30 01:36:55;;;;;;;;;;;;;;;21.39;53.43;102504.31;2110215;28;2154;-29
2021/03/30 01:37:56;;;;;;;;;;;;;;;21.40;53.38;102508.88;2114946;28;1450;-31
2021/03/30 01:38:57;;;;;;;;;;;;;;;21.40;53.42;102511.72;2114445;28;2141;-30
2021/03/30 01:39:58;;;;;;;;;;;;;;;21.40;53.44;102506.00;2113088;28;2071;-29
2021/03/30 01:40:58;;;;;;;;;;;;;;;21.41;53.52;102510.53;2113665;28;2464;-31
2021/03/30 01:41:59;;;;;;;;;;;;;;;21.40;53.59;102508.88;2110063;28;2227;-30
2021/03/30 01:43:00;;;;;;;;;;;;;;;21.40;53.52;102508.88;2112918;28;2023;-30
2021/03/30 01:44:01;;;;;;;;;;;;;;;21.40;53.57;102500.31;2110627;28;1602;-29
2021/03/30 01:45:02;;;;;;;;;;;;;;;21.40;53.52;102506.00;2114569;28;2027;-29
2021/03/30 01:46:02;;;;;;;;;;;;;;;21.39;53.46;102505.16;2113656;28;2677;-29
2021/03/30 01:47:03;;;;;;;;;;;;;;;21.39;53.51;102510.84;2113134;28;2389;-31
2021/03/30 01:48:04;;;;;;;;;;;;;;;21.40;53.42;102506.00;2113855;28;1114;-31
2021/03/30 01:49:05;;;;;;;;;;;;;;;21.40;53.56;102504.00;2112598;28;2509;-28
2021/03/30 01:50:06;;;;;;;;;;;;;;;21.41;53.63;102507.69;2111555;28;2114;-28
2021/03/30 01:51:07;;;;;;;;;;;;;;;21.40;53.54;102501.16;2115226;28;1770;-31
2021/03/30 01:52:07;;;;;;;;;;;;;;;21.40;53.71;102500.31;2115035;28;1333;-30
2021/03/30 01:53:08;;;;;;;;;;;;;;;21.41;53.56;102499.16;2114770;28;1992;-34
2021/03/30 01:54:09;;;;;;;;;;;;;;;21.41;53.61;102507.69;2110025;28;2615;-31
2021/03/30 01:55:09;;;;;;;;;;;;;;;21.41;53.79;102507.69;2115193;28;1075;-30
2021/03/30 01:56:10;;;;;;;;;;;;;;;21.41;53.63;102510.53;2114368;28;2201;-29
2021/03/30 01:57:11;;;;;;;;;;;;;;;21.41;53.89;102502.00;2111370;28;2181;-35
2021/03/30 01:58:12;;;;;;;;;;;;;;;21.42;53.89;102509.38;2113152;28;2174;-33
2021/03/30 01:59:13;;;;;;;;;;;;;;;21.42;53.80;102503.69;2115022;28;1221;-28
2021/03/30 02:00:13;;;;;;;;;;;;;;;21.43;53.94;102511.06;2107220;28;2187;-32
2021/03/30 02:01:14;;;;;;;;;;;;;;;21.42;54.10;102501.69;2113889;28;2507;-29
2021/03/30 02:02:15;;;;;;;;;;;;;;;21.43;53.94;102511.06;2115508;28;1118;-30
2021/03/30 02:03:16;;;;;;;;;;;;;;;21.43;54.05;102502.53;2109130;28;2792;-28
2021/03/30 02:04:17;;;;;;;;;;;;;;;21.43;53.80;102513.94;2107044;28;2146;-29
2021/03/30 02:05:17;;;;;;;;;;;;;;;21.42;54.04;102507.38;2113154;28;2007;-30
2021/03/30 02:06:18;;;;;;;;;;;;;;;21.42;53.98;102497.97;2112649;28;2257;-29
2021/03/30 02:07:19;;;;;;;;;;;;;;;21.43;54.03;102500.53;2109556;28;2114;-33
2021/03/30 02:08:20;;;;;;;;;;;;;;;21.43;53.99;102502.53;2112882;28;2190;-28
2021/03/30 02:09:25;;;;;;;;;;;;;;;21.43;53.81;102503.38;2112199;28;2275;-30
2021/03/30 02:11:35;;;;;;;;;;;;;;;21.43;53.85;102499.69;2113707;28;2163;-29
2021/03/30 02:12:42;;;;;;;;;;;;;;;21.42;54.00;102503.69;2115548;28;2341;-30
2021/03/30 02:13:45;;;;;;;;;;;;;;;21.42;53.71;102503.69;2112736;28;2248;-29
2021/03/30 02:14:45;;;;;;;;;;;;;;;21.43;53.92;102499.69;2113599;28;2537;-34
2021/03/30 02:15:46;;;;;;;;;;;;;;;21.43;54.02;102505.38;2115121;28;1356;-28
2021/03/30 02:16:47;;;;;;;;;;;;;;;21.43;53.88;102499.69;2114819;28;2161;-29
2021/03/30 02:17:48;;;;;;;;;;;;;;;21.43;53.84;102505.38;2114315;28;2075;-28
2021/03/30 02:18:48;;;;;;;;;;;;;;;21.42;53.80;102498.84;2113034;28;2188;-29
2021/03/30 02:19:49;;;;;;;;;;;;;;;21.43;54.01;102506.22;2116963;28;1153;-31
2021/03/30 02:20:50;;;;;;;;;;;;;;;21.43;53.88;102505.38;2115691;28;2202;-28
2021/03/30 02:21:51;;;;;;;;;;;;;;;21.43;53.92;102505.38;2114447;28;2078;-31
2021/03/30 02:22:51;;;;;;;;;;;;;;;21.43;53.97;102505.38;2113968;28;2326;-33
2021/03/30 02:23:52;;;;;;;;;;;;;;;21.42;53.87;102504.53;2114009;28;2189;-31
2021/03/30 02:24:53;;;;;;;;;;;;;;;21.44;53.95;102501.38;2116659;28;1324;-29
2021/03/30 02:25:54;;;;;;;;;;;;;;;21.43;53.94;102505.38;2116029;28;1841;-28
2021/03/30 02:26:54;;;;;;;;;;;;;;;21.43;53.87;102511.06;2112925;28;2284;-31
2021/03/30 02:27:55;;;;;;;;;;;;;;;21.44;53.86;102509.91;2114226;28;2295;-31
2021/03/30 02:28:58;;;;;;;;;;;;;;;21.43;53.76;102511.91;2116644;28;1696;-29
2021/03/30 02:29:59;;;;;;;;;;;;;;;21.42;53.92;102518.78;2111378;28;3606;-29
2021/03/30 02:30:59;;;;;;;;;;;;;;;21.44;53.82;102515.59;2117014;28;1143;-30
2021/03/30 02:32:00;;;;;;;;;;;;;;;21.44;53.74;102518.44;2112373;28;2157;-29
2021/03/30 02:33:01;;;;;;;;;;;;;;;21.43;53.80;102511.91;2113390;28;2434;-36
2021/03/30 02:34:01;;;;;;;;;;;;;;;21.43;53.67;102514.75;2116503;28;1356;-28
2021/03/30 02:35:02;;;;;;;;;;;;;;;21.44;53.63;102521.28;2113045;28;2206;-36
2021/03/30 02:36:03;;;;;;;;;;;;;;;21.43;53.84;102516.78;2114096;28;2808;-31
2021/03/30 02:37:05;;;;;;;;;;;;;;;21.42;53.74;102518.78;2115979;28;2153;-29
2021/03/30 02:38:06;;;;;;;;;;;;;;;21.43;53.71;102516.78;2112277;28;2170;-29
2021/03/30 02:39:06;;;;;;;;;;;;;;;21.43;53.82;102519.63;2113485;28;1166;-28
2021/03/30 02:40:07;;;;;;;;;;;;;;;21.43;53.69;102519.63;2116371;28;1160;-29
2021/03/30 02:41:08;;;;;;;;;;;;;;;21.42;53.65;102515.06;2112952;27;1344;-30
2021/03/30 02:42:08;;;;;;;;;;;;;;;21.43;53.86;102525.31;2109716;28;2128;-29
2021/03/30 02:43:09;;;;;;;;;;;;;;;21.42;53.73;102521.63;2116561;28;2366;-29
2021/03/30 02:44:10;;;;;;;;;;;;;;;21.43;53.73;102531.00;2114240;28;2067;-29
2021/03/30 02:45:11;;;;;;;;;;;;;;;21.43;53.89;102519.63;2115346;28;2096;-29
2021/03/30 02:46:12;;;;;;;;;;;;;;;21.42;53.65;102530.16;2116040;28;1313;-30
2021/03/30 02:47:12;;;;;;;;;;;;;;;21.43;53.78;102528.16;2107933;28;2177;-30
2021/03/30 02:48:13;;;;;;;;;;;;;;;21.42;53.80;102530.16;2113336;28;1625;-31
2021/03/30 02:49:14;;;;;;;;;;;;;;;21.42;53.76;102527.31;2112746;28;2218;-34
2021/03/30 02:50:15;;;;;;;;;;;;;;;21.43;53.75;102525.31;2116127;28;1874;-29
2021/03/30 02:51:16;;;;;;;;;;;;;;;21.42;53.62;102524.47;2116356;28;1049;-29
2021/03/30 02:52:16;;;;;;;;;;;;;;;21.42;53.66;102533.03;2111989;28;2331;-33
2021/03/30 02:53:17;;;;;;;;;;;;;;;21.42;53.78;102520.75;2115579;28;1641;-29
2021/03/30 02:54:18;;;;;;;;;;;;;;;21.42;53.70;102529.31;2116500;28;1449;-30
2021/03/30 02:55:19;;;;;;;;;;;;;;;21.42;53.81;102529.31;2114145;28;2074;-32
2021/03/30 02:56:19;;;;;;;;;;;;;;;21.40;53.59;102529.63;2113037;28;2317;-30
2021/03/30 02:57:22;;;;;;;;;;;;;;;21.41;53.67;102524.78;2110295;28;2364;-30
2021/03/30 02:58:22;;;;;;;;;;;;;;;21.43;53.71;102522.47;2114097;28;2368;-27
2021/03/30 02:59:24;;;;;;;;;;;;;;;21.43;53.63;102529.00;2109569;28;2384;-30
2021/03/30 03:00:24;;;;;;;;;;;;;;;21.42;53.84;102533.03;2111655;28;2178;-30
2021/03/30 03:01:25;;;;;;;;;;;;;;;21.42;53.75;102530.16;2111774;28;2355;-30
2021/03/30 03:02:26;;;;;;;;;;;;;;;21.43;53.71;102531.00;2116625;28;1217;-29
2021/03/30 03:03:28;;;;;;;;;;;;;;;21.42;53.77;102530.16;2111539;28;2848;-29
2021/03/30 03:04:29;;;;;;;;;;;;;;;21.43;53.68;102533.84;2113106;28;2114;-29
2021/03/30 03:05:30;;;;;;;;;;;;;;;21.44;53.71;102529.84;2115752;28;2280;-28
2021/03/30 03:06:30;;;;;;;;;;;;;;;21.43;53.52;102528.16;2115706;28;1966;-29
2021/03/30 03:07:31;;;;;;;;;;;;;;;21.44;53.63;102529.84;2107752;27;2881;-28
2021/03/30 03:08:32;;;;;;;;;;;;;;;21.44;53.66;102527.00;2115056;28;2614;-28
2021/03/30 03:09:33;;;;;;;;;;;;;;;21.43;53.73;102526.16;2114807;28;2171;-31
2021/03/30 03:10:33;;;;;;;;;;;;;;;21.44;53.79;102527.81;2114937;28;2355;-28
2021/03/30 03:11:34;;;;;;;;;;;;;;;21.44;53.80;102524.16;2116042;28;1432;-28
2021/03/30 03:12:35;;;;;;;;;;;;;;;21.44;53.58;102527.81;2116122;28;1200;-32
2021/03/30 03:13:35;;;;;;;;;;;;;;;21.44;53.73;102533.53;2113350;28;2067;-29
2021/03/30 03:14:36;;;;;;;;;;;;;;;21.44;53.68;102524.97;2116519;28;1764;-33
2021/03/30 03:15:37;;;;;;;;;;;;;;;21.44;53.73;102529.84;2111338;28;2399;-29
2021/03/30 03:16:38;;;;;;;;;;;;;;;21.45;53.95;102532.38;2111054;28;2028;-29
2021/03/30 03:17:39;;;;;;;;;;;;;;;21.45;53.90;102522.97;2114954;28;2305;-29
2021/03/30 03:18:40;;;;;;;;;;;;;;;21.46;53.90;102530.38;2113856;28;2254;-29
2021/03/30 03:19:41;;;;;;;;;;;;;;;21.45;53.90;102526.69;2111071;28;1208;-29
2021/03/30 03:20:42;;;;;;;;;;;;;;;21.46;53.79;102528.38;2113899;28;2102;-29
2021/03/30 03:21:43;;;;;;;;;;;;;;;21.45;53.84;102523.84;2115483;28;1355;-31
2021/03/30 03:22:43;;;;;;;;;;;;;;;21.45;53.87;102529.53;2116217;28;1496;-30
2021/03/30 03:23:44;;;;;;;;;;;;;;;21.45;53.83;102525.81;2113448;28;2183;-29
2021/03/30 03:24:45;;;;;;;;;;;;;;;21.45;53.87;102529.53;2116409;28;1118;-36
2021/03/30 03:25:46;;;;;;;;;;;;;;;21.45;53.98;102525.81;2116285;28;1735;-29
2021/03/30 03:26:46;;;;;;;;;;;;;;;21.45;53.84;102520.13;2113394;28;1688;-29
2021/03/30 03:27:47;;;;;;;;;;;;;;;21.44;53.76;102524.97;2113597;28;2298;-29
2021/03/30 03:28:48;;;;;;;;;;;;;;;21.45;53.88;102522.97;2116468;28;1180;-29
2021/03/30 03:29:49;;;;;;;;;;;;;;;21.45;53.71;102523.84;2109401;28;2315;-36
2021/03/30 03:30:49;;;;;;;;;;;;;;;21.46;53.68;102527.53;2111448;28;2347;-30
2021/03/30 03:31:50;;;;;;;;;;;;;;;21.45;53.82;102529.53;2115160;28;1314;-30
2021/03/30 03:32:51;;;;;;;;;;;;;;;21.46;53.75;102527.53;2114749;28;2048;-29
2021/03/30 03:33:52;;;;;;;;;;;;;;;21.44;53.80;102519.28;2111998;28;2153;-28
2021/03/30 03:34:52;;;;;;;;;;;;;;;21.45;53.78;102514.44;2115738;28;1133;-32
2021/03/30 03:35:53;;;;;;;;;;;;;;;21.45;53.87;102515.31;2115683;28;1552;-30
2021/03/30 03:36:54;;;;;;;;;;;;;;;21.45;53.72;102514.44;2112240;28;2216;-29
2021/03/30 03:37:55;;;;;;;;;;;;;;;21.45;53.67;102521.00;2110183;28;2232;-29
2021/03/30 03:38:55;;;;;;;;;;;;;;;21.46;53.67;102521.84;2113264;28;2147;-29
2021/03/30 03:39:56;;;;;;;;;;;;;;;21.46;53.63;102528.38;2111524;28;2338;-30
2021/03/30 03:40:57;;;;;;;;;;;;;;;21.46;53.77;102525.53;2114679;28;2332;-35
2021/03/30 03:41:58;;;;;;;;;;;;;;;21.45;53.56;102525.81;2107690;28;2512;-29
2021/03/30 03:42:58;;;;;;;;;;;;;;;21.46;53.57;102527.53;2109655;28;1347;-30
2021/03/30 03:43:59;;;;;;;;;;;;;;;21.46;53.72;102528.38;2115353;28;2782;-38
2021/03/30 03:45:00;;;;;;;;;;;;;;;21.45;53.66;102526.69;2110021;28;2205;-29
2021/03/30 03:46:00;;;;;;;;;;;;;;;21.46;53.69;102530.38;2115123;28;2111;-29
2021/03/30 03:47:01;;;;;;;;;;;;;;;21.46;53.63;102530.38;2108438;28;2167;-29
2021/03/30 03:48:02;;;;;;;;;;;;;;;21.47;53.70;102532.06;2114121;28;1712;-29
2021/03/30 03:49:03;;;;;;;;;;;;;;;21.47;53.51;102534.91;2112132;28;2284;-30
2021/03/30 03:50:04;;;;;;;;;;;;;;;21.47;53.75;102537.75;2112056;28;2255;-29
2021/03/30 03:51:04;;;;;;;;;;;;;;;21.46;53.78;102534.06;2115918;28;1143;-30
2021/03/30 03:52:05;;;;;;;;;;;;;;;21.47;53.58;102534.91;2112351;28;2173;-30
2021/03/30 03:53:06;;;;;;;;;;;;;;;21.47;53.56;102540.59;2108067;28;2180;-29
2021/03/30 03:54:07;;;;;;;;;;;;;;;21.47;53.70;102543.44;2115937;28;1217;-30
2021/03/30 03:55:08;;;;;;;;;;;;;;;21.47;53.56;102540.59;2111754;28;2121;-29
2021/03/30 03:56:09;;;;;;;;;;;;;;;21.47;53.62;102537.75;2116269;28;1549;-31
2021/03/30 03:57:10;;;;;;;;;;;;;;;21.47;53.72;102541.44;2114436;28;2527;-30
2021/03/30 03:58:10;;;;;;;;;;;;;;;21.47;53.83;102546.28;2113885;28;1619;-29
2021/03/30 03:59:11;;;;;;;;;;;;;;;21.46;53.80;102534.06;2112082;28;2191;-31
2021/03/30 04:00:12;;;;;;;;;;;;;;;21.47;53.62;102540.59;2108504;28;2119;-32
2021/03/30 04:01:13;;;;;;;;;;;;;;;21.47;53.69;102541.44;2113174;28;2518;-30
2021/03/30 04:02:14;;;;;;;;;;;;;;;21.47;53.71;102546.28;2108754;28;2759;-29
2021/03/30 04:03:15;;;;;;;;;;;;;;;21.47;53.67;102537.75;2112739;28;2892;-30
2021/03/30 04:04:16;;;;;;;;;;;;;;;21.46;53.79;102534.06;2113694;28;2279;-30
2021/03/30 04:05:17;;;;;;;;;;;;;;;21.47;53.65;102535.75;2114587;28;2220;-29
2021/03/30 04:06:18;;;;;;;;;;;;;;;21.47;53.68;102532.91;2112981;28;2150;-33
2021/03/30 04:07:18;;;;;;;;;;;;;;;21.48;54.04;102539.47;2107730;28;2181;-32
2021/03/30 04:08:19;;;;;;;;;;;;;;;21.48;53.88;102533.75;2113463;28;2130;-30
2021/03/30 04:09:22;;;;;;;;;;;;;;;21.45;53.81;102532.38;2108153;28;2126;-29
2021/03/30 04:10:23;;;;;;;;;;;;;;;21.47;53.74;102537.75;2108744;28;2185;-30
2021/03/30 04:11:23;;;;;;;;;;;;;;;21.47;53.77;102535.75;2115222;28;2035;-32
2021/03/30 04:12:26;;;;;;;;;;;;;;;21.47;53.81;102535.75;2107819;28;2453;-31
2021/03/30 04:13:30;;;;;;;;;;;;;;;21.47;53.79;102534.91;2115764;28;1218;-31
2021/03/30 04:14:30;;;;;;;;;;;;;;;21.47;53.89;102540.59;2113668;28;2220;-30
2021/03/30 04:15:31;;;;;;;;;;;;;;;21.47;53.84;102535.75;2115542;28;1210;-34
2021/03/30 04:16:32;;;;;;;;;;;;;;;21.47;54.03;102532.91;2116191;28;1136;-29
2021/03/30 04:17:33;;;;;;;;;;;;;;;21.48;53.94;102542.31;2113857;28;2189;-31
2021/03/30 04:18:33;;;;;;;;;;;;;;;21.48;53.86;102542.31;2113204;28;2294;-28
2021/03/30 04:19:34;;;;;;;;;;;;;;;21.48;53.88;102539.47;2109680;28;1681;-29
2021/03/30 04:20:35;;;;;;;;;;;;;;;21.48;53.92;102536.59;2115713;28;1309;-29
2021/03/30 04:21:36;;;;;;;;;;;;;;;21.47;53.98;102541.44;2115639;28;1141;-29
2021/03/30 04:22:38;;;;;;;;;;;;;;;21.47;54.01;102543.44;2109770;28;2167;-30
2021/03/30 04:23:43;;;;;;;;;;;;;;;21.47;54.00;102544.28;2114478;28;1890;-29
2021/03/30 04:24:44;;;;;;;;;;;;;;;21.48;53.97;102546.00;2107450;28;2188;-32
2021/03/30 04:25:44;;;;;;;;;;;;;;;21.48;53.89;102548.00;2107412;28;2158;-29
2021/03/30 04:26:45;;;;;;;;;;;;;;;21.48;53.99;102542.31;2114765;28;1340;-32
2021/03/30 04:27:46;;;;;;;;;;;;;;;21.48;54.17;102545.16;2108333;28;2278;-28
2021/03/30 04:28:47;;;;;;;;;;;;;;;21.48;54.08;102542.31;2111839;28;2164;-30
2021/03/30 04:29:48;;;;;;;;;;;;;;;21.48;54.26;102539.47;2114862;28;3774;-29
2021/03/30 04:30:48;;;;;;;;;;;;;;;21.48;54.06;102550.84;2110594;28;2153;-28
2021/03/30 04:31:49;;;;;;;;;;;;;;;21.48;54.17;102545.16;2115732;28;1500;-31
2021/03/30 04:32:50;;;;;;;;;;;;;;;21.48;54.25;102548.00;2114914;28;2182;-29
2021/03/30 04:33:51;;;;;;;;;;;;;;;21.48;54.05;102545.16;2107312;28;2596;-29
2021/03/30 04:34:51;;;;;;;;;;;;;;;21.48;54.17;102545.16;2114918;28;1482;-29
2021/03/30 04:35:52;;;;;;;;;;;;;;;21.47;54.06;102541.44;2115755;28;1207;-34
2021/03/30 04:36:53;;;;;;;;;;;;;;;21.49;54.21;102555.38;2115437;28;1431;-28
2021/03/30 04:37:59;;;;;;;;;;;;;;;21.48;53.99;102550.84;2108337;28;2505;-29
2021/03/30 04:38:59;;;;;;;;;;;;;;;21.49;54.17;102550.53;2111994;28;2194;-29
2021/03/30 04:40:00;;;;;;;;;;;;;;;21.49;54.24;102553.38;2113758;28;2217;-31
2021/03/30 04:41:01;;;;;;;;;;;;;;;21.49;54.28;102552.53;2115183;28;2351;-29
2021/03/30 04:42:02;;;;;;;;;;;;;;;21.50;54.19;102548.50;2115958;28;1800;-30
2021/03/30 04:43:02;;;;;;;;;;;;;;;21.52;54.27;102551.91;2115125;28;1496;-29
2021/03/30 04:44:03;;;;;;;;;;;;;;;21.52;54.30;102551.91;2115356;28;1917;-32
2021/03/30 04:45:04;;;;;;;;;;;;;;;21.52;54.23;102554.75;2114742;28;2150;-29
2021/03/30 04:46:05;;;;;;;;;;;;;;;21.51;54.18;102548.22;2114029;28;2126;-30
2021/03/30 04:47:05;;;;;;;;;;;;;;;21.51;54.31;102547.38;2115359;28;1264;-29
2021/03/30 04:48:06;;;;;;;;;;;;;;;21.51;54.39;102551.06;2115051;28;1500;-29
2021/03/30 04:49:07;;;;;;;;;;;;;;;21.51;54.09;102542.50;2111499;28;2371;-30
2021/03/30 04:50:08;;;;;;;;;;;;;;;21.51;54.20;102556.75;2114736;28;1494;-29
2021/03/30 04:51:09;;;;;;;;;;;;;;;21.51;54.26;102541.66;2115264;28;1415;-29
2021/03/30 04:52:10;;;;;;;;;;;;;;;21.52;54.43;102549.03;2113387;28;2121;-29
2021/03/30 04:53:12;;;;;;;;;;;;;;;21.52;54.51;102546.19;2115565;28;1121;-31
2021/03/30 04:54:12;;;;;;;;;;;;;;;21.52;54.40;102551.91;2111275;28;2203;-32
2021/03/30 04:55:14;;;;;;;;;;;;;;;21.52;54.50;102549.88;2110435;28;2158;-31
2021/03/30 04:56:15;;;;;;;;;;;;;;;21.53;54.33;102553.56;2114477;28;2210;-34
2021/03/30 04:57:16;;;;;;;;;;;;;;;21.51;54.54;102553.91;2112784;28;2235;-37
2021/03/30 04:58:17;;;;;;;;;;;;;;;21.52;54.38;102561.28;2111806;27;3393;-30
2021/03/30 04:59:17;;;;;;;;;;;;;;;21.53;54.48;102559.25;2107395;28;2086;-34
2021/03/30 05:00:18;;;;;;;;;;;;;;;21.52;54.28;102554.75;2110287;28;2546;-28
2021/03/30 05:01:19;;;;;;;;;;;;;;;21.52;54.39;102561.28;2113806;28;1699;-29
2021/03/30 05:02:20;;;;;;;;;;;;;;;21.52;54.37;102561.28;2115460;28;1423;-30
2021/03/30 05:03:20;;;;;;;;;;;;;;;21.53;54.26;102564.97;2110315;28;2996;-34
2021/03/30 05:04:21;;;;;;;;;;;;;;;21.53;54.49;102564.97;2112505;28;2144;-32
2021/03/30 05:05:22;;;;;;;;;;;;;;;21.52;54.39;102561.28;2110731;28;2300;-31
2021/03/30 05:06:22;;;;;;;;;;;;;;;21.51;54.23;102568.16;2108717;28;2329;-31
2021/03/30 05:07:23;;;;;;;;;;;;;;;21.53;54.44;102564.97;2114517;28;2509;-30
2021/03/30 05:08:24;;;;;;;;;;;;;;;21.52;54.40;102569.81;2114185;28;2249;-29
2021/03/30 05:09:25;;;;;;;;;;;;;;;21.52;54.37;102560.44;2115228;28;1352;-28
2021/03/30 05:10:26;;;;;;;;;;;;;;;21.53;54.40;102573.50;2114675;28;2488;-33
2021/03/30 05:11:27;;;;;;;;;;;;;;;21.52;54.11;102563.28;2113892;28;1515;-30
2021/03/30 05:12:28;;;;;;;;;;;;;;;21.52;54.25;102577.53;2115449;28;1084;-30
2021/03/30 05:13:29;;;;;;;;;;;;;;;21.52;54.43;102566.97;2112084;28;2078;-29
2021/03/30 05:14:30;;;;;;;;;;;;;;;21.52;54.36;102561.28;2111205;28;1334;-29
2021/03/30 05:15:31;;;;;;;;;;;;;;;21.53;54.36;102564.97;2115926;28;1236;-29
2021/03/30 05:16:31;;;;;;;;;;;;;;;21.52;54.41;102575.50;2113380;28;2448;-29
2021/03/30 05:17:32;;;;;;;;;;;;;;;21.52;54.29;102561.28;2114899;28;2540;-28
2021/03/30 05:18:33;;;;;;;;;;;;;;;21.52;54.16;102572.66;2113749;28;2082;-33